Time;durP1;ratioP1;P1;durP2;ratioP2;P2;SDS_P1;SDS_P2;PMS_P1;PMS_P2;Temp;Humidity;BMP_temperature;BMP_pressure;BME280_temperature;BME280_humidity;BME280_pressure;Samples;Min_cycle;Max_cycle;Signal;HPM_P1;HPM_P2
2023/01/30 00:01:55;;;;;;;12.47;7.40;;;3.00;99.90;2.40;99247;;;;553250;259;24187;-74
2023/01/30 00:04:23;;;;;;;12.87;6.67;;;3.00;99.90;2.40;99239;;;;554046;257;24156;-75
2023/01/30 00:06:51;;;;;;;14.07;7.73;;;3.00;99.90;2.40;99238;;;;554362;259;24146;-76
2023/01/30 00:09:19;;;;;;;10.63;6.40;;;3.00;99.90;2.40;99233;;;;541845;259;24200;-77
2023/01/30 00:11:47;;;;;;;10.47;6.83;;;3.00;99.90;2.40;99221;;;;533928;264;24208;-75
2023/01/30 00:14:19;;;;;;;12.33;8.00;;;3.00;99.90;2.40;99217;;;;533660;265;24202;-76
2023/01/30 00:16:43;;;;;;;10.90;6.70;;;3.00;99.90;2.40;99211;;;;542989;260;24232;-76
2023/01/30 00:19:11;;;;;;;9.30;6.43;;;3.00;99.90;2.40;99210;;;;533726;264;24205;-78
2023/01/30 00:21:42;;;;;;;13.37;7.43;;;3.00;99.90;2.40;99205;;;;533631;264;24190;-73
2023/01/30 00:24:07;;;;;;;12.83;7.20;;;3.00;99.90;2.40;99202;;;;542763;260;24222;-75
2023/01/30 00:26:34;;;;;;;9.90;6.37;;;3.00;99.90;2.40;99193;;;;545902;260;24177;-74
2023/01/30 00:29:02;;;;;;;11.53;7.70;;;3.00;99.90;2.40;99201;;;;543002;260;24262;-77
2023/01/30 00:31:30;;;;;;;11.47;7.33;;;2.90;99.90;2.40;99185;;;;543057;260;24175;-79
2023/01/30 00:33:58;;;;;;;13.10;8.07;;;2.90;99.90;2.30;99159;;;;536272;265;25247;-77
2023/01/30 00:36:26;;;;;;;9.67;6.30;;;2.90;99.90;2.30;99165;;;;533478;265;24226;-77
2023/01/30 00:38:54;;;;;;;8.97;6.23;;;2.90;99.90;2.30;99150;;;;533437;265;24186;-73
2023/01/30 00:41:22;;;;;;;8.27;6.37;;;2.90;99.90;2.30;99138;;;;547652;259;24271;-76
2023/01/30 00:49:22;;;;;;;14.70;8.27;;;2.90;99.90;2.30;99127;;;;552284;257;25139;-74
2023/01/30 00:51:50;;;;;;;12.07;7.77;;;2.80;99.90;2.20;99126;;;;548580;257;24128;-75
2023/01/30 00:54:17;;;;;;;10.53;6.30;;;2.80;99.90;2.20;99113;;;;548401;257;24185;-75
2023/01/30 00:56:45;;;;;;;8.77;6.37;;;2.80;99.90;2.20;99108;;;;548646;257;24112;-75
2023/01/30 00:59:13;;;;;;;10.90;7.23;;;2.80;99.90;2.20;99097;;;;548446;257;24158;-74
2023/01/30 01:01:41;;;;;;;12.00;7.90;;;2.70;99.90;2.10;99095;;;;548437;257;24136;-74
2023/01/30 01:04:09;;;;;;;11.97;7.27;;;2.70;99.90;2.10;99085;;;;556637;257;24121;-75
2023/01/30 01:06:37;;;;;;;10.20;7.10;;;2.70;99.90;2.10;99069;;;;548454;257;24200;-75
2023/01/30 01:09:08;;;;;;;7.10;5.53;;;2.70;99.90;2.10;99072;;;;548547;257;24190;-76
2023/01/30 01:11:33;;;;;;;7.73;5.67;;;2.70;99.90;2.10;99068;;;;550918;257;24198;-76
2023/01/30 01:14:05;;;;;;;12.70;7.17;;;2.70;99.90;2.10;99055;;;;548946;257;24122;-75
2023/01/30 01:16:29;;;;;;;13.17;7.00;;;2.70;99.90;2.10;99039;;;;549925;257;24122;-75
2023/01/30 01:18:57;;;;;;;13.97;6.73;;;2.70;99.90;2.10;99034;;;;549893;257;24188;-74
2023/01/30 01:21:25;;;;;;;10.73;7.00;;;2.70;99.90;2.10;99029;;;;553435;257;24178;-78
2023/01/30 01:23:56;;;;;;;11.10;7.50;;;2.70;99.90;2.10;99025;;;;549569;257;25142;-75
2023/01/30 01:26:23;;;;;;;9.70;6.70;;;2.70;99.90;2.10;99009;;;;548393;257;24129;-75
2023/01/30 01:28:54;;;;;;;14.20;6.47;;;2.70;99.90;2.10;99001;;;;553201;257;24120;-75
2023/01/30 01:31:23;;;;;;;9.43;6.97;;;2.70;99.90;2.10;98993;;;;546761;257;24145;-75
2023/01/30 01:33:51;;;;;;;10.90;7.07;;;2.70;99.90;2.10;98990;;;;549116;257;24117;-77
2023/01/30 01:36:20;;;;;;;7.37;5.43;;;2.70;99.90;2.10;98981;;;;549179;257;24128;-78
2023/01/30 01:38:47;;;;;;;12.43;9.15;;;2.70;99.90;2.10;98988;;;;544361;257;35507;-75
2023/01/30 01:41:15;;;;;;;10.93;7.23;;;2.70;99.90;2.10;98971;;;;549084;257;24113;-76
2023/01/30 01:44:08;;;;;;;8.67;6.60;;;2.70;99.90;2.10;98971;;;;546460;257;24157;-75
2023/01/30 01:46:51;;;;;;;8.43;4.63;;;2.70;99.90;2.10;98964;;;;549104;257;24144;-75
2023/01/30 01:49:27;;;;;;;7.43;5.40;;;2.70;99.90;2.10;98949;;;;552594;257;24148;-74
2023/01/30 01:51:58;;;;;;;9.13;6.43;;;2.70;99.90;2.10;98948;;;;547504;257;24158;-75
2023/01/30 01:54:56;;;;;;;10.57;6.27;;;2.70;99.90;2.10;98939;;;;545800;257;24132;-76
2023/01/30 01:57:24;;;;;;;9.20;7.30;;;2.70;99.90;2.10;98920;;;;542565;256;24247;-75
2023/01/30 01:59:52;;;;;;;12.57;7.10;;;2.60;99.90;2.00;98910;;;;545678;257;24164;-77
2023/01/30 02:02:20;;;;;;;8.20;6.23;;;2.70;99.90;2.00;98886;;;;542612;260;24198;-77
2023/01/30 02:05:05;;;;;;;12.93;6.83;;;2.60;99.90;2.00;98899;;;;548959;257;24159;-76
2023/01/30 02:07:38;;;;;;;9.77;6.50;;;2.60;99.90;2.00;98890;;;;547695;257;24150;-75
2023/01/30 02:10:06;;;;;;;10.73;7.20;;;2.60;99.90;2.00;98892;;;;548884;257;24136;-75
2023/01/30 02:12:37;;;;;;;12.13;7.77;;;2.60;99.90;2.00;98885;;;;545874;257;24128;-76
2023/01/30 02:15:01;;;;;;;12.47;7.60;;;2.60;99.90;2.10;98868;;;;546323;257;24180;-76
2023/01/30 02:17:29;;;;;;;10.40;6.90;;;2.60;99.90;2.10;98881;;;;547881;257;24179;-78
2023/01/30 02:19:57;;;;;;;13.13;6.87;;;2.70;99.90;2.00;98869;;;;548573;257;24151;-77
2023/01/30 02:22:37;;;;;;;11.50;7.43;;;2.70;99.90;2.00;98860;;;;537222;260;25234;-77
2023/01/30 02:25:48;;;;;;;10.57;7.63;;;2.60;99.90;2.00;98867;;;;546355;257;24121;-77
2023/01/30 02:28:22;;;;;;;12.77;8.93;;;2.60;99.90;2.00;98871;;;;553038;257;24210;-76
2023/01/30 02:31:17;;;;;;;14.90;9.10;;;2.60;99.90;2.00;98866;;;;549553;257;24148;-76
2023/01/30 02:34:03;;;;;;;16.77;10.17;;;2.60;99.90;2.00;98855;;;;553458;257;24131;-77
2023/01/30 02:37:04;;;;;;;16.37;11.67;;;2.60;99.90;1.90;98863;;;;548638;257;25165;-75
2023/01/30 02:39:51;;;;;;;15.77;12.23;;;2.50;99.90;1.90;98859;;;;550168;260;24198;-76
2023/01/30 02:42:37;;;;;;;16.73;12.67;;;2.50;99.90;1.90;98860;;;;556860;256;24131;-78
2023/01/30 02:45:20;;;;;;;14.23;12.20;;;2.50;99.90;1.90;98835;;;;549058;257;24155;-75
2023/01/30 02:47:54;;;;;;;16.07;12.63;;;2.50;99.90;1.90;98826;;;;547894;257;24143;-74
2023/01/30 02:50:53;;;;;;;17.27;12.83;;;2.50;99.90;1.90;98844;;;;550888;260;24255;-77
2023/01/30 02:53:20;;;;;;;16.47;12.73;;;2.50;99.90;1.90;98826;;;;548605;257;24159;-74
2023/01/30 02:55:48;;;;;;;17.33;12.40;;;2.50;99.90;1.90;98825;;;;552138;257;24155;-75
2023/01/30 02:58:17;;;;;;;15.67;12.03;;;2.50;99.90;1.90;98826;;;;551858;257;24121;-77
2023/01/30 03:00:54;;;;;;;13.90;11.40;;;2.50;99.90;1.90;98813;;;;556692;257;24139;-77
2023/01/30 03:03:37;;;;;;;16.53;13.67;;;2.50;99.90;1.80;98783;;;;556565;257;24142;-75
2023/01/30 03:06:16;;;;;;;16.63;13.53;;;2.40;99.90;1.80;98796;;;;556557;257;24126;-76
2023/01/30 03:09:05;;;;;;;12.70;10.80;;;2.40;99.90;1.80;98783;;;;556109;257;24136;-76
2023/01/30 03:11:49;;;;;;;16.50;13.50;;;2.30;99.90;1.70;98781;;;;556569;257;24142;-76
2023/01/30 03:14:26;;;;;;;16.70;12.77;;;2.30;99.90;1.70;98770;;;;549964;257;24219;-74
2023/01/30 03:16:54;;;;;;;12.87;11.03;;;2.30;99.90;1.60;98753;;;;548687;257;24220;-76
2023/01/30 03:19:23;;;;;;;14.20;11.63;;;2.20;99.90;1.60;98763;;;;556927;257;24116;-77
2023/01/30 03:21:50;;;;;;;12.93;10.57;;;2.20;99.90;1.60;98742;;;;548913;257;24158;-77
2023/01/30 03:24:18;;;;;;;11.20;9.73;;;2.20;99.90;1.60;98740;;;;551892;257;24160;-77
2023/01/30 03:26:59;;;;;;;11.80;10.43;;;2.20;99.90;1.60;98735;;;;552695;257;24154;-76
2023/01/30 03:29:26;;;;;;;10.20;9.07;;;2.20;99.90;1.60;98714;;;;556638;257;24225;-77
2023/01/30 03:31:54;;;;;;;11.00;9.30;;;2.20;99.90;1.60;98708;;;;549016;257;24139;-76
2023/01/30 03:34:22;;;;;;;11.03;8.63;;;2.20;99.90;1.60;98714;;;;548927;257;24194;-77
2023/01/30 03:36:51;;;;;;;11.07;8.73;;;2.20;99.90;1.60;98712;;;;548947;257;24153;-75
2023/01/30 03:39:19;;;;;;;10.10;8.03;;;2.20;99.90;1.60;98704;;;;550000;257;24111;-75
2023/01/30 03:41:48;;;;;;;11.57;8.73;;;2.20;99.90;1.60;98697;;;;549986;257;24170;-76
2023/01/30 03:44:15;;;;;;;10.77;8.53;;;2.10;99.90;1.60;98697;;;;549643;257;24126;-77
2023/01/30 03:46:43;;;;;;;9.23;8.30;;;2.20;99.90;1.60;98693;;;;549709;257;24128;-77
2023/01/30 03:49:11;;;;;;;9.67;8.13;;;2.20;99.90;1.60;98687;;;;549305;257;24168;-75
2023/01/30 03:51:39;;;;;;;8.20;7.37;;;2.20;99.90;1.60;98682;;;;557120;256;24139;-75
2023/01/30 03:54:07;;;;;;;8.63;7.70;;;2.20;99.90;1.60;98673;;;;549042;257;24128;-75
2023/01/30 03:56:35;;;;;;;8.30;6.77;;;2.20;99.90;1.60;98656;;;;552854;257;24121;-76
2023/01/30 03:59:04;;;;;;;7.87;6.83;;;2.20;99.90;1.60;98664;;;;548864;257;24146;-76
2023/01/30 04:01:31;;;;;;;6.70;6.10;;;2.20;99.90;1.60;98656;;;;549039;257;24151;-75
2023/01/30 04:04:03;;;;;;;6.90;6.23;;;2.20;99.90;1.60;98656;;;;548923;257;24116;-77
2023/01/30 04:06:31;;;;;;;7.03;6.20;;;2.20;99.90;1.60;98660;;;;556548;257;24136;-75
2023/01/30 04:08:55;;;;;;;6.33;5.73;;;2.20;99.90;1.60;98649;;;;548731;257;24145;-74
2023/01/30 04:11:24;;;;;;;7.93;5.60;;;2.20;99.90;1.60;98635;;;;548775;257;24230;-76
2023/01/30 04:13:52;;;;;;;6.70;5.60;;;2.10;99.90;1.50;98635;;;;548828;257;24140;-75
2023/01/30 04:16:20;;;;;;;6.80;6.10;;;2.10;99.90;1.50;98628;;;;548996;257;24125;-76
2023/01/30 04:18:48;;;;;;;6.13;5.53;;;2.10;99.90;1.50;98615;;;;546198;257;24145;-77
2023/01/30 04:21:15;;;;;;;6.43;5.10;;;2.10;99.90;1.50;98604;;;;548932;257;24124;-78
2023/01/30 04:23:43;;;;;;;6.30;4.97;;;2.10;99.90;1.40;98598;;;;552796;257;24110;-78
2023/01/30 04:26:12;;;;;;;6.27;5.37;;;2.00;99.90;1.50;98593;;;;548966;257;24155;-78
2023/01/30 04:28:39;;;;;;;5.13;4.67;;;2.00;99.90;1.40;98586;;;;548869;257;24124;-77
2023/01/30 04:31:07;;;;;;;6.47;5.67;;;2.00;99.90;1.50;98564;;;;548929;257;24108;-78
2023/01/30 04:33:39;;;;;;;7.43;5.63;;;2.00;99.90;1.40;98575;;;;552807;257;24121;-78
2023/01/30 04:36:07;;;;;;;7.33;5.30;;;2.00;99.90;1.40;98577;;;;546520;257;24165;-78
2023/01/30 04:38:31;;;;;;;6.20;5.60;;;2.10;99.90;1.40;98569;;;;548554;257;24212;-77
2023/01/30 04:40:59;;;;;;;6.33;5.73;;;2.00;99.90;1.40;98569;;;;548158;257;24160;-76
2023/01/30 04:43:27;;;;;;;6.60;6.00;;;1.90;99.90;1.40;98561;;;;552753;257;24130;-78
2023/01/30 04:45:55;;;;;;;6.67;5.97;;;1.90;99.90;1.40;98568;;;;548091;257;24125;-77
2023/01/30 04:48:23;;;;;;;6.03;5.43;;;1.90;99.90;1.40;98550;;;;548961;257;24117;-77
2023/01/30 04:50:51;;;;;;;6.10;5.60;;;1.90;99.90;1.40;98545;;;;547359;257;24144;-78
2023/01/30 04:53:19;;;;;;;5.83;5.33;;;1.90;99.90;1.40;98543;;;;551427;259;24205;-79
2023/01/30 04:55:47;;;;;;;6.10;5.43;;;1.90;99.90;1.40;98540;;;;548675;257;24128;-78
2023/01/30 04:58:18;;;;;;;6.13;5.53;;;1.90;99.90;1.40;98523;;;;549200;257;24124;-77
2023/01/30 05:00:43;;;;;;;5.70;5.20;;;2.00;99.90;1.40;98519;;;;549265;257;24172;-77
2023/01/30 05:03:11;;;;;;;5.87;5.37;;;2.00;99.90;1.40;98519;;;;549333;257;24126;-77
2023/01/30 05:05:39;;;;;;;5.60;5.10;;;2.00;99.90;1.40;98508;;;;549421;257;24123;-77
2023/01/30 05:08:07;;;;;;;6.27;5.67;;;2.00;99.90;1.40;98511;;;;549314;257;24121;-77
2023/01/30 05:10:35;;;;;;;5.43;4.83;;;2.00;99.90;1.50;98495;;;;549174;257;24116;-78
2023/01/30 05:13:06;;;;;;;5.37;4.87;;;2.00;99.90;1.50;98485;;;;549188;257;24156;-79
2023/01/30 05:15:31;;;;;;;4.97;4.57;;;2.00;99.90;1.50;98481;;;;550449;256;24184;-78
2023/01/30 05:17:59;;;;;;;4.73;4.33;;;2.10;99.90;1.50;98482;;;;548988;257;24132;-79
2023/01/30 05:20:29;;;;;;;4.87;4.33;;;2.10;99.90;1.50;98477;;;;542796;260;24259;-76
2023/01/30 05:22:55;;;;;;;4.87;4.47;;;2.10;99.90;1.50;98481;;;;548487;257;24211;-76
2023/01/30 05:25:23;;;;;;;4.57;4.10;;;2.10;99.90;1.50;98465;;;;548846;257;24174;-76
2023/01/30 05:27:51;;;;;;;5.50;5.00;;;2.10;99.90;1.50;98458;;;;548546;257;24116;-78
2023/01/30 05:30:19;;;;;;;5.37;4.87;;;2.10;99.90;1.50;98453;;;;548717;257;24120;-76
2023/01/30 05:32:47;;;;;;;5.57;4.60;;;2.10;99.90;1.50;98446;;;;548619;257;24115;-78
2023/01/30 05:35:15;;;;;;;5.23;4.73;;;2.10;99.90;1.50;98440;;;;548440;257;25169;-77
2023/01/30 05:37:43;;;;;;;4.60;4.20;;;2.10;99.90;1.50;98434;;;;548624;257;24174;-77
2023/01/30 05:40:11;;;;;;;5.03;4.47;;;2.10;99.90;1.50;98426;;;;548442;257;24115;-78
2023/01/30 05:42:39;;;;;;;4.57;4.17;;;2.10;99.90;1.50;98424;;;;548518;260;24172;-76
2023/01/30 05:45:11;;;;;;;4.53;4.13;;;2.10;99.90;1.50;98429;;;;548609;257;24267;-77
2023/01/30 05:47:36;;;;;;;4.80;4.40;;;2.00;99.90;1.40;98418;;;;556283;257;24159;-76
2023/01/30 05:50:07;;;;;;;4.77;4.37;;;2.00;99.90;1.40;98419;;;;548598;257;24246;-75
2023/01/30 05:52:31;;;;;;;5.10;4.53;;;2.00;99.90;1.40;98400;;;;547338;260;24144;-78
2023/01/30 05:54:59;;;;;;;4.03;3.67;;;2.00;99.90;1.40;98405;;;;539832;262;24190;-76
2023/01/30 05:57:27;;;;;;;4.23;3.93;;;2.00;99.90;1.40;98414;;;;542682;260;24234;-78
2023/01/30 05:59:55;;;;;;;4.90;4.50;;;2.00;99.90;1.40;98396;;;;542985;260;24151;-75
2023/01/30 06:02:23;;;;;;;5.33;4.17;;;2.00;99.90;1.40;98408;;;;543853;260;24163;-75
2023/01/30 06:04:51;;;;;;;5.43;4.03;;;2.00;99.90;1.40;98393;;;;549337;256;24149;-75
2023/01/30 06:07:19;;;;;;;5.40;4.13;;;2.00;99.90;1.40;98397;;;;534200;264;24230;-74
2023/01/30 06:09:47;;;;;;;5.80;4.50;;;2.00;99.90;1.40;98390;;;;549635;257;24116;-75
2023/01/30 06:12:15;;;;;;;4.30;3.90;;;2.00;99.90;1.40;98395;;;;553213;257;24183;-75
2023/01/30 06:14:43;;;;;;;4.37;3.97;;;2.00;99.90;1.40;98382;;;;549359;257;24148;-77
2023/01/30 06:17:12;;;;;;;4.47;4.07;;;2.00;99.90;1.40;98379;;;;549175;257;24163;-74
2023/01/30 06:19:40;;;;;;;3.73;3.43;;;2.00;99.90;1.40;98379;;;;548976;257;24129;-77
2023/01/30 06:22:08;;;;;;;3.97;3.30;;;2.00;99.90;1.40;98373;;;;547761;258;24145;-76
2023/01/30 06:24:36;;;;;;;4.00;3.60;;;2.00;99.90;1.40;98379;;;;552388;257;24199;-77
2023/01/30 06:27:03;;;;;;;3.27;2.97;;;2.00;99.90;1.40;98386;;;;552368;254;24169;-79
2023/01/30 06:29:32;;;;;;;3.67;3.37;;;2.00;99.90;1.40;98376;;;;557590;257;24156;-78
2023/01/30 06:32:00;;;;;;;3.33;3.13;;;2.00;99.90;1.40;98385;;;;544318;262;24223;-77
2023/01/30 06:34:29;;;;;;;3.37;3.10;;;1.90;99.90;1.40;98372;;;;542645;257;24204;-77
2023/01/30 06:36:57;;;;;;;4.37;3.07;;;1.90;99.90;1.40;98379;;;;553567;256;24213;-79
2023/01/30 06:39:24;;;;;;;3.10;2.90;;;1.90;99.90;1.40;98373;;;;532128;261;24191;-81
2023/01/30 06:41:52;;;;;;;2.87;2.67;;;1.90;99.90;1.40;98365;;;;542168;260;24145;-81
2023/01/30 06:44:20;;;;;;;3.40;2.67;;;1.90;99.90;1.30;98363;;;;550792;257;24164;-79
2023/01/30 06:46:48;;;;;;;2.90;2.60;;;1.90;99.90;1.30;98356;;;;548446;258;24221;-79
2023/01/30 06:49:16;;;;;;;2.57;2.43;;;1.90;99.90;1.40;98355;;;;542983;260;24176;-79
2023/01/30 06:51:44;;;;;;;3.17;2.33;;;1.90;99.90;1.40;98348;;;;553984;254;24192;-80
2023/01/30 06:54:16;;;;;;;3.00;2.80;;;2.00;99.90;1.40;98353;;;;548649;257;24184;-79
2023/01/30 06:56:41;;;;;;;3.77;2.90;;;2.00;99.90;1.40;98353;;;;551270;257;24149;-78
2023/01/30 06:59:08;;;;;;;2.60;2.40;;;2.00;99.90;1.40;98344;;;;545186;257;24168;-77
2023/01/30 07:01:38;;;;;;;3.73;3.03;;;2.00;99.90;1.40;98350;;;;544111;262;24132;-75
2023/01/30 07:04:05;;;;;;;2.53;2.33;;;1.90;99.90;1.40;98346;;;;543871;258;24140;-77
2023/01/30 07:06:34;;;;;;;3.03;2.73;;;2.00;99.90;1.40;98336;;;;543770;259;24159;-79
2023/01/30 07:09:02;;;;;;;3.43;3.13;;;2.00;99.90;1.40;98343;;;;555994;253;24202;-77
2023/01/30 07:11:30;;;;;;;5.50;3.93;;;1.90;99.90;1.40;98346;;;;551628;257;24137;-77
2023/01/30 07:13:57;;;;;;;3.00;2.80;;;1.90;99.90;1.30;98335;;;;548337;256;25175;-77
2023/01/30 07:16:28;;;;;;;6.80;5.07;;;1.90;99.90;1.30;98332;;;;546346;259;24149;-76
2023/01/30 07:18:56;;;;;;;5.23;4.20;;;1.90;99.90;1.30;98337;;;;546196;259;24202;-76
2023/01/30 07:21:23;;;;;;;4.43;3.87;;;1.90;99.90;1.30;98339;;;;543534;260;24167;-76
2023/01/30 07:23:51;;;;;;;4.40;3.50;;;1.90;99.90;1.30;98343;;;;536091;260;24221;-79
2023/01/30 07:26:19;;;;;;;2.87;2.63;;;1.90;99.90;1.40;98329;;;;540755;264;24118;-79
2023/01/30 07:28:47;;;;;;;3.23;2.93;;;1.90;99.90;1.40;98328;;;;539449;262;24218;-80
2023/01/30 07:31:15;;;;;;;2.50;2.30;;;2.00;99.90;1.50;98329;;;;557910;256;24158;-82
2023/01/30 07:33:42;;;;;;;2.70;2.50;;;2.00;99.90;1.50;98328;;;;557677;257;24172;-77
2023/01/30 07:36:11;;;;;;;3.23;2.67;;;2.10;99.90;1.50;98331;;;;557235;256;24148;-75
2023/01/30 07:38:39;;;;;;;2.50;2.10;;;2.10;99.90;1.50;98332;;;;551024;260;24177;-76
2023/01/30 07:41:07;;;;;;;2.80;2.60;;;2.10;99.90;1.60;98348;;;;549296;257;24117;-77
2023/01/30 07:43:39;;;;;;;2.23;2.03;;;2.10;99.90;1.60;98339;;;;557259;256;24220;-76
2023/01/30 07:46:03;;;;;;;2.70;2.50;;;2.10;99.90;1.60;98335;;;;548223;260;24161;-80
2023/01/30 07:48:31;;;;;;;2.70;2.50;;;2.20;99.90;1.60;98336;;;;549305;257;24116;-77
2023/01/30 07:50:59;;;;;;;2.17;2.03;;;2.20;99.90;1.60;98348;;;;557062;257;24174;-73
2023/01/30 07:53:27;;;;;;;2.47;2.27;;;2.20;99.90;1.60;98346;;;;551132;257;24200;-76
2023/01/30 07:55:54;;;;;;;2.27;2.17;;;2.20;99.90;1.60;98368;;;;557014;257;24164;-79
2023/01/30 07:58:22;;;;;;;1.93;1.83;;;2.20;99.90;1.70;98367;;;;556747;256;24154;-80
2023/01/30 08:00:50;;;;;;;1.90;1.80;;;2.20;99.90;1.70;98352;;;;556231;253;24108;-78
2023/01/30 08:03:18;;;;;;;1.73;1.63;;;2.20;99.90;1.70;98343;;;;547612;256;24634;-79
2023/01/30 08:05:46;;;;;;;1.80;1.70;;;2.20;99.90;1.70;98338;;;;545780;258;24273;-80
2023/01/30 08:08:14;;;;;;;2.83;1.90;;;2.30;99.90;1.80;98337;;;;538095;263;24172;-78
2023/01/30 08:10:42;;;;;;;2.20;2.00;;;2.30;99.90;1.80;98332;;;;538191;263;24175;-79
2023/01/30 08:13:11;;;;;;;2.50;1.97;;;2.50;99.90;1.90;98340;;;;538065;263;24216;-80
2023/01/30 08:15:38;;;;;;;1.17;1.17;;;2.50;99.90;1.90;98343;;;;538122;263;24178;-77
2023/01/30 08:18:06;;;;;;;2.10;1.93;;;2.50;99.90;1.90;98343;;;;546067;263;24179;-78
2023/01/30 08:20:34;;;;;;;1.97;1.53;;;2.50;99.90;1.90;98343;;;;546025;263;24217;-75
2023/01/30 08:23:02;;;;;;;1.63;1.43;;;2.50;99.90;2.00;98344;;;;538268;263;24186;-79
2023/01/30 08:25:31;;;;;;;3.43;2.27;;;2.60;99.90;2.10;98331;;;;546936;261;24167;-79
2023/01/30 08:27:59;;;;;;;4.40;2.30;;;2.60;99.90;2.20;98319;;;;539295;262;24203;-77
2023/01/30 08:30:30;;;;;;;1.93;1.83;;;2.70;99.90;2.20;98324;;;;546789;262;24251;-74
2023/01/30 08:32:55;;;;;;;2.53;2.17;;;2.70;99.90;2.20;98324;;;;538868;262;24203;-77
2023/01/30 08:35:26;;;;;;;3.00;2.37;;;2.70;99.90;2.20;98325;;;;538786;262;24168;-74
2023/01/30 08:37:51;;;;;;;2.37;1.83;;;2.70;99.90;2.30;98312;;;;540726;262;24202;-74
2023/01/30 08:40:19;;;;;;;4.83;1.93;;;2.80;99.90;2.20;98318;;;;539982;261;24169;-74
2023/01/30 08:42:48;;;;;;;3.27;2.23;;;2.80;99.90;2.20;98323;;;;531392;266;24276;-74
2023/01/30 08:45:15;;;;;;;1.47;1.37;;;2.80;99.90;2.20;98313;;;;529974;264;24269;-76
2023/01/30 08:47:43;;;;;;;2.63;2.27;;;2.70;99.90;2.10;98321;;;;529833;267;24270;-73
2023/01/30 08:50:11;;;;;;;3.00;2.10;;;2.70;99.90;2.10;98313;;;;529689;267;24249;-74
2023/01/30 08:52:39;;;;;;;3.60;2.60;;;2.70;99.90;2.10;98308;;;;529737;267;24191;-73
2023/01/30 08:55:08;;;;;;;2.37;2.10;;;2.70;99.90;2.10;98296;;;;529734;267;24200;-74
2023/01/30 08:57:39;;;;;;;2.13;2.03;;;2.60;99.90;2.10;98304;;;;529056;267;24247;-75
2023/01/30 09:00:04;;;;;;;3.47;2.83;;;2.70;99.90;2.20;98302;;;;528359;267;24222;-75
2023/01/30 09:02:32;;;;;;;2.40;2.13;;;2.70;99.90;2.20;98295;;;;529520;264;24211;-74
2023/01/30 09:04:59;;;;;;;2.60;2.27;;;2.80;99.90;2.30;98283;;;;529296;267;24220;-77
2023/01/30 09:07:28;;;;;;;2.50;2.30;;;2.90;99.90;2.40;98280;;;;529200;267;24211;-77
2023/01/30 09:09:56;;;;;;;2.47;2.23;;;3.00;99.90;2.60;98286;;;;529291;267;24242;-75
2023/01/30 09:12:25;;;;;;;4.93;4.30;;;3.20;99.90;2.70;98282;;;;524512;267;35900;-75
2023/01/30 09:14:54;;;;;;;3.77;3.10;;;3.20;99.90;2.90;98288;;;;529245;267;24201;-75
2023/01/30 09:17:23;;;;;;;5.37;3.20;;;3.40;99.90;3.10;98285;;;;529210;265;24258;-74
2023/01/30 09:19:48;;;;;;;4.10;2.90;;;3.50;99.90;3.40;98285;;;;529403;267;24252;-73
2023/01/30 09:22:16;;;;;;;4.80;2.87;;;3.90;99.90;3.70;98273;;;;529462;267;24318;-75
2023/01/30 09:24:45;;;;;;;2.20;2.10;;;4.60;99.90;4.20;98266;;;;528844;266;24199;-72
2023/01/30 09:27:13;;;;;;;3.97;2.63;;;4.60;99.90;4.50;98267;;;;529491;266;24197;-72
2023/01/30 09:29:41;;;;;;;5.53;3.30;;;5.00;99.90;4.70;98264;;;;529501;267;24201;-80
2023/01/30 09:32:09;;;;;;;4.53;3.10;;;5.30;99.90;5.00;98272;;;;529562;267;24213;-74
2023/01/30 09:34:37;;;;;;;2.83;2.63;;;5.60;99.90;5.20;98265;;;;529550;267;24280;-73
2023/01/30 09:37:05;;;;;;;4.37;1.83;;;5.80;99.90;5.20;98269;;;;530510;266;24300;-73
2023/01/30 09:39:36;;;;;;;6.90;3.17;;;5.90;99.90;5.40;98259;;;;530700;266;24209;-74
2023/01/30 09:42:00;;;;;;;7.67;3.83;;;6.00;99.90;5.70;98251;;;;530372;265;24198;-75
2023/01/30 09:44:55;;;;;;;4.67;3.67;;;6.30;99.90;6.20;98264;;;;530279;263;24195;-75
2023/01/30 09:47:41;;;;;;;7.40;4.10;;;6.80;99.90;6.80;98253;;;;524507;267;24297;-74
2023/01/30 09:50:15;;;;;;;4.83;2.67;;;7.40;99.90;6.90;98253;;;;544353;260;24195;-75
2023/01/30 09:53:10;;;;;;;5.40;3.27;;;7.60;99.90;6.80;98254;;;;538859;259;24201;-73
2023/01/30 09:55:38;;;;;;;9.17;3.13;;;7.60;99.90;6.50;98253;;;;553617;259;24192;-77
2023/01/30 09:58:06;;;;;;;5.70;3.30;;;7.30;99.90;6.40;98263;;;;548847;260;24188;-77
2023/01/30 10:00:38;;;;;;;4.47;2.70;;;7.20;99.90;6.30;98268;;;;547939;260;24169;-74
2023/01/30 10:03:17;;;;;;;7.03;3.03;;;7.00;99.90;6.30;98267;;;;548313;260;24214;-76
2023/01/30 10:05:59;;;;;;;8.30;2.90;;;6.90;99.90;6.00;98260;;;;556332;257;24210;-80
2023/01/30 10:08:39;;;;;;;7.50;3.23;;;6.70;99.90;5.90;98259;;;;551520;260;24222;-76
2023/01/30 10:11:34;;;;;;;5.40;2.57;;;6.50;99.90;5.70;98260;;;;549406;257;24224;-75
2023/01/30 10:14:26;;;;;;;3.83;2.47;;;6.40;99.90;5.60;98253;;;;558611;257;25158;-74
2023/01/30 10:17:02;;;;;;;2.93;2.40;;;6.20;99.90;5.60;98256;;;;548734;255;24171;-76
2023/01/30 10:20:05;;;;;;;2.40;1.70;;;6.20;99.90;5.50;98235;;;;539761;262;24159;-74
2023/01/30 10:23:00;;;;;;;2.80;1.87;;;6.10;99.90;5.30;98252;;;;548000;262;24180;-79
2023/01/30 10:25:29;;;;;;;7.93;1.90;;;5.90;99.90;5.10;98246;;;;540024;262;24149;-75
2023/01/30 10:28:03;;;;;;;3.00;1.90;;;5.70;99.90;5.20;98246;;;;539981;262;24235;-77
2023/01/30 10:30:31;;;;;;;7.17;3.03;;;5.70;99.90;5.20;98237;;;;540663;257;24144;-79
2023/01/30 10:33:01;;;;;;;4.93;2.50;;;5.80;99.90;5.30;98243;;;;548033;257;24132;-77
2023/01/30 10:35:27;;;;;;;9.03;2.47;;;5.80;99.90;5.40;98232;;;;553390;257;24134;-76
2023/01/30 10:38:19;;;;;;;2.73;1.67;;;5.90;99.90;5.30;98249;;;;539921;260;24204;-77
2023/01/30 10:41:04;;;;;;;5.03;1.90;;;5.90;99.90;5.20;98251;;;;540163;260;24214;-79
2023/01/30 10:43:32;;;;;;;4.07;1.87;;;5.80;99.90;4.90;98239;;;;548784;257;24151;-76
2023/01/30 10:46:30;;;;;;;1.50;1.40;;;5.50;99.90;4.80;98231;;;;548532;257;24125;-77
2023/01/30 10:49:19;;;;;;;3.33;1.57;;;5.40;99.90;4.50;98233;;;;547817;258;24171;-79
2023/01/30 10:52:00;;;;;;;4.27;1.23;;;4.80;99.90;4.30;98231;;;;549192;258;24235;-76
2023/01/30 10:54:37;;;;;;;1.70;1.47;;;4.80;99.90;4.30;98238;;;;546506;258;24174;-77
2023/01/30 10:57:16;;;;;;;4.00;1.37;;;4.70;99.90;4.30;98234;;;;546334;258;24163;-74
2023/01/30 11:00:04;;;;;;;3.27;2.43;;;4.80;99.90;4.30;98247;;;;543657;257;24154;-76
2023/01/30 11:03:03;;;;;;;3.33;1.70;;;4.80;99.90;4.20;98248;;;;555025;255;24124;-75
2023/01/30 11:05:31;;;;;;;4.77;1.80;;;4.70;99.90;3.80;98230;;;;548673;259;24156;-75
2023/01/30 11:07:59;;;;;;;2.23;1.97;;;4.40;99.90;3.50;98239;;;;552212;255;24207;-75
2023/01/30 11:10:30;;;;;;;3.33;2.10;;;4.10;99.90;3.20;98218;;;;543339;260;24147;-78
2023/01/30 11:13:00;;;;;;;3.23;2.00;;;3.80;99.90;2.90;98211;;;;545036;260;24244;-75
2023/01/30 11:15:40;;;;;;;2.50;2.33;;;3.50;99.90;2.70;98210;;;;543622;260;24168;-76
2023/01/30 11:18:08;;;;;;;3.50;1.83;;;3.30;99.90;2.60;98195;;;;556069;255;24199;-74
2023/01/30 11:20:40;;;;;;;2.67;1.93;;;3.10;99.90;2.50;98184;;;;543716;260;24189;-74
2023/01/30 11:23:08;;;;;;;4.43;2.53;;;3.10;99.90;2.50;98189;;;;543689;259;24221;-74
2023/01/30 11:25:48;;;;;;;6.63;2.63;;;3.00;99.90;2.50;98181;;;;540780;257;24148;-73
2023/01/30 11:28:18;;;;;;;3.33;2.70;;;3.00;99.90;2.50;98186;;;;548174;257;24131;-73
2023/01/30 11:30:54;;;;;;;7.37;3.20;;;3.10;99.90;2.60;98183;;;;556608;257;24197;-74
2023/01/30 11:33:21;;;;;;;3.57;1.93;;;3.10;99.90;2.80;98178;;;;542271;260;24218;-76
2023/01/30 11:35:59;;;;;;;9.93;2.73;;;3.30;99.90;2.90;98172;;;;556170;256;24130;-75
2023/01/30 11:38:27;;;;;;;8.50;4.35;;;3.40;99.90;2.90;98177;;;;541575;253;35522;-74
2023/01/30 11:41:03;;;;;;;8.07;3.93;;;3.40;99.90;2.90;98182;;;;539129;262;24233;-74
2023/01/30 11:43:31;;;;;;;12.07;4.80;;;3.40;99.90;2.80;98173;;;;542938;257;35510;-74
2023/01/30 11:45:59;;;;;;;11.70;3.60;;;3.40;99.90;2.80;98160;;;;545183;257;24183;-75
2023/01/30 11:48:27;;;;;;;5.33;3.10;;;3.40;99.90;2.90;98166;;;;547899;257;24140;-75
2023/01/30 11:50:56;;;;;;;2.70;1.97;;;3.40;99.90;3.00;98156;;;;556345;257;24136;-75
2023/01/30 11:53:44;;;;;;;3.07;2.10;;;3.50;99.90;3.00;98153;;;;543217;260;24183;-75
2023/01/30 11:56:23;;;;;;;5.33;2.27;;;3.50;99.90;3.00;98148;;;;553411;252;24094;-77